sensor_id;sensor_type;location;lat;lon;timestamp;P1;durP1;ratioP1;P2;durP2;ratioP2
16967;SDS011;64862;54.398;10.126;2023-08-01T00:05:20;5.95;;;4.22;;
16967;SDS011;64862;54.398;10.126;2023-08-01T00:15:23;6.88;;;4.40;;
16967;SDS011;64862;54.398;10.126;2023-08-01T00:25:25;6.13;;;4.13;;
16967;SDS011;64862;54.398;10.126;2023-08-01T00:35:29;6.95;;;4.40;;
16967;SDS011;64862;54.398;10.126;2023-08-01T00:45:31;5.43;;;3.28;;
16967;SDS011;64862;54.398;10.126;2023-08-01T00:55:35;3.30;;;2.50;;
16967;SDS011;64862;54.398;10.126;2023-08-01T01:05:38;6.57;;;2.40;;
16967;SDS011;64862;54.398;10.126;2023-08-01T01:15:46;3.35;;;2.22;;
16967;SDS011;64862;54.398;10.126;2023-08-01T01:25:50;4.70;;;2.33;;
16967;SDS011;64862;54.398;10.126;2023-08-01T01:35:53;3.53;;;1.95;;
16967;SDS011;64862;54.398;10.126;2023-08-01T01:45:57;4.32;;;2.00;;
16967;SDS011;64862;54.398;10.126;2023-08-01T01:55:59;4.10;;;2.10;;
16967;SDS011;64862;54.398;10.126;2023-08-01T02:06:03;4.47;;;2.75;;
16967;SDS011;64862;54.398;10.126;2023-08-01T02:16:05;7.53;;;5.35;;
16967;SDS011;64862;54.398;10.126;2023-08-01T02:26:09;8.18;;;5.63;;
16967;SDS011;64862;54.398;10.126;2023-08-01T02:36:11;9.45;;;6.65;;
16967;SDS011;64862;54.398;10.126;2023-08-01T02:46:15;10.32;;;7.38;;
16967;SDS011;64862;54.398;10.126;2023-08-01T02:56:17;12.18;;;7.57;;
16967;SDS011;64862;54.398;10.126;2023-08-01T03:06:21;12.60;;;7.40;;
16967;SDS011;64862;54.398;10.126;2023-08-01T03:16:23;10.45;;;6.43;;
16967;SDS011;64862;54.398;10.126;2023-08-01T03:26:26;9.02;;;5.50;;
16967;SDS011;64862;54.398;10.126;2023-08-01T03:36:29;9.30;;;5.32;;
16967;SDS011;64862;54.398;10.126;2023-08-01T03:46:33;7.20;;;5.57;;
16967;SDS011;64862;54.398;10.126;2023-08-01T03:56:35;9.10;;;4.95;;
16967;SDS011;64862;54.398;10.126;2023-08-01T04:06:42;8.07;;;5.85;;
16967;SDS011;64862;54.398;10.126;2023-08-01T04:16:45;8.45;;;5.78;;
16967;SDS011;64862;54.398;10.126;2023-08-01T04:26:48;8.75;;;6.57;;
16967;SDS011;64862;54.398;10.126;2023-08-01T04:36:50;10.45;;;6.28;;
16967;SDS011;64862;54.398;10.126;2023-08-01T04:46:54;8.27;;;6.30;;
16967;SDS011;64862;54.398;10.126;2023-08-01T04:56:56;10.45;;;6.00;;
16967;SDS011;64862;54.398;10.126;2023-08-01T05:07:00;6.40;;;5.28;;
16967;SDS011;64862;54.398;10.126;2023-08-01T05:17:02;6.93;;;4.75;;
16967;SDS011;64862;54.398;10.126;2023-08-01T05:27:06;5.40;;;3.80;;
16967;SDS011;64862;54.398;10.126;2023-08-01T05:37:08;3.00;;;1.75;;
16967;SDS011;64862;54.398;10.126;2023-08-01T05:47:11;1.83;;;0.80;;
16967;SDS011;64862;54.398;10.126;2023-08-01T05:57:14;3.25;;;0.70;;
16967;SDS011;64862;54.398;10.126;2023-08-01T06:07:18;1.55;;;0.68;;
16967;SDS011;64862;54.398;10.126;2023-08-01T06:17:23;2.22;;;0.55;;
16967;SDS011;64862;54.398;10.126;2023-08-01T06:27:26;1.42;;;0.50;;
16967;SDS011;64862;54.398;10.126;2023-08-01T06:37:29;1.08;;;0.68;;
16967;SDS011;64862;54.398;10.126;2023-08-01T06:47:32;1.20;;;0.70;;
16967;SDS011;64862;54.398;10.126;2023-08-01T06:57:34;2.03;;;0.90;;
16967;SDS011;64862;54.398;10.126;2023-08-01T07:07:38;1.15;;;0.73;;
16967;SDS011;64862;54.398;10.126;2023-08-01T07:17:40;2.70;;;1.00;;
16967;SDS011;64862;54.398;10.126;2023-08-01T07:27:43;2.08;;;0.90;;
16967;SDS011;64862;54.398;10.126;2023-08-01T07:37:46;1.42;;;0.90;;
16967;SDS011;64862;54.398;10.126;2023-08-01T07:47:50;3.25;;;1.40;;
16967;SDS011;64862;54.398;10.126;2023-08-01T07:58:01;6.00;;;1.30;;
16967;SDS011;64862;54.398;10.126;2023-08-01T08:08:05;2.95;;;1.40;;
16967;SDS011;64862;54.398;10.126;2023-08-01T08:18:07;2.97;;;1.50;;
16967;SDS011;64862;54.398;10.126;2023-08-01T08:28:11;3.63;;;1.85;;
16967;SDS011;64862;54.398;10.126;2023-08-01T08:38:14;5.60;;;2.20;;
16967;SDS011;64862;54.398;10.126;2023-08-01T08:48:18;8.40;;;2.92;;
16967;SDS011;64862;54.398;10.126;2023-08-01T08:58:20;7.45;;;2.42;;
16967;SDS011;64862;54.398;10.126;2023-08-01T09:08:25;8.10;;;2.00;;
16967;SDS011;64862;54.398;10.126;2023-08-01T09:18:30;3.17;;;0.88;;
16967;SDS011;64862;54.398;10.126;2023-08-01T09:28:34;3.03;;;1.00;;
16967;SDS011;64862;54.398;10.126;2023-08-01T09:38:36;3.47;;;1.30;;
16967;SDS011;64862;54.398;10.126;2023-08-01T09:48:41;7.55;;;1.50;;
16967;SDS011;64862;54.398;10.126;2023-08-01T09:58:43;2.22;;;0.70;;
16967;SDS011;64862;54.398;10.126;2023-08-01T10:08:50;2.30;;;0.82;;
16967;SDS011;64862;54.398;10.126;2023-08-01T10:18:53;3.43;;;1.13;;
16967;SDS011;64862;54.398;10.126;2023-08-01T10:28:58;5.38;;;1.70;;
16967;SDS011;64862;54.398;10.126;2023-08-01T10:39:01;5.10;;;1.52;;
16967;SDS011;64862;54.398;10.126;2023-08-01T10:49:05;6.85;;;1.20;;
16967;SDS011;64862;54.398;10.126;2023-08-01T10:59:07;3.67;;;1.15;;
16967;SDS011;64862;54.398;10.126;2023-08-01T11:09:16;6.72;;;1.42;;
16967;SDS011;64862;54.398;10.126;2023-08-01T11:19:20;7.22;;;1.48;;
16967;SDS011;64862;54.398;10.126;2023-08-01T11:29:27;5.95;;;1.10;;
16967;SDS011;64862;54.398;10.126;2023-08-01T11:39:29;3.47;;;0.98;;
16967;SDS011;64862;54.398;10.126;2023-08-01T11:49:33;3.70;;;1.25;;
16967;SDS011;64862;54.398;10.126;2023-08-01T11:59:45;5.20;;;1.10;;
16967;SDS011;64862;54.398;10.126;2023-08-01T12:09:58;5.22;;;1.30;;
16967;SDS011;64862;54.398;10.126;2023-08-01T12:20:02;4.97;;;1.20;;
16967;SDS011;64862;54.398;10.126;2023-08-01T12:30:11;3.90;;;1.30;;
16967;SDS011;64862;54.398;10.126;2023-08-01T12:40:13;7.63;;;1.00;;
16967;SDS011;64862;54.398;10.126;2023-08-01T12:50:19;3.70;;;0.90;;
16967;SDS011;64862;54.398;10.126;2023-08-01T13:00:23;6.50;;;1.30;;
16967;SDS011;64862;54.398;10.126;2023-08-01T13:10:29;5.30;;;1.10;;
16967;SDS011;64862;54.398;10.126;2023-08-01T13:20:31;4.37;;;1.10;;
16967;SDS011;64862;54.398;10.126;2023-08-01T13:30:37;5.60;;;1.40;;
16967;SDS011;64862;54.398;10.126;2023-08-01T13:40:43;7.55;;;1.48;;
16967;SDS011;64862;54.398;10.126;2023-08-01T13:50:50;9.40;;;1.50;;
16967;SDS011;64862;54.398;10.126;2023-08-01T14:00:52;9.38;;;1.65;;
16967;SDS011;64862;54.398;10.126;2023-08-01T14:10:56;5.43;;;1.30;;
16967;SDS011;64862;54.398;10.126;2023-08-01T14:21:08;9.15;;;1.73;;
16967;SDS011;64862;54.398;10.126;2023-08-01T14:31:11;6.90;;;1.83;;
16967;SDS011;64862;54.398;10.126;2023-08-01T14:41:13;6.38;;;1.60;;
16967;SDS011;64862;54.398;10.126;2023-08-01T14:51:17;8.13;;;1.33;;
16967;SDS011;64862;54.398;10.126;2023-08-01T15:01:19;4.32;;;1.10;;
16967;SDS011;64862;54.398;10.126;2023-08-01T15:11:23;4.40;;;1.10;;
16967;SDS011;64862;54.398;10.126;2023-08-01T15:21:25;4.60;;;0.95;;
16967;SDS011;64862;54.398;10.126;2023-08-01T15:31:31;5.47;;;0.80;;
16967;SDS011;64862;54.398;10.126;2023-08-01T15:41:34;3.30;;;0.70;;
16967;SDS011;64862;54.398;10.126;2023-08-01T15:51:38;7.10;;;0.60;;
16967;SDS011;64862;54.398;10.126;2023-08-01T16:01:40;4.32;;;0.68;;
16967;SDS011;64862;54.398;10.126;2023-08-01T16:11:44;2.45;;;0.50;;
16967;SDS011;64862;54.398;10.126;2023-08-01T16:21:46;4.53;;;0.93;;
16967;SDS011;64862;54.398;10.126;2023-08-01T16:31:49;16.17;;;2.75;;
16967;SDS011;64862;54.398;10.126;2023-08-01T16:41:52;5.85;;;0.85;;
16967;SDS011;64862;54.398;10.126;2023-08-01T16:51:56;3.40;;;0.98;;
16967;SDS011;64862;54.398;10.126;2023-08-01T17:01:58;7.55;;;1.20;;
16967;SDS011;64862;54.398;10.126;2023-08-01T17:12:01;5.97;;;1.33;;
16967;SDS011;64862;54.398;10.126;2023-08-01T17:22:04;9.13;;;1.55;;
16967;SDS011;64862;54.398;10.126;2023-08-01T17:32:08;6.82;;;1.27;;
16967;SDS011;64862;54.398;10.126;2023-08-01T17:42:10;8.90;;;1.33;;
16967;SDS011;64862;54.398;10.126;2023-08-01T17:52:14;5.15;;;1.25;;
16967;SDS011;64862;54.398;10.126;2023-08-01T18:02:16;7.63;;;1.50;;
16967;SDS011;64862;54.398;10.126;2023-08-01T18:12:20;7.78;;;1.23;;
16967;SDS011;64862;54.398;10.126;2023-08-01T18:22:22;10.07;;;1.70;;
16967;SDS011;64862;54.398;10.126;2023-08-01T18:32:26;8.38;;;1.65;;
16967;SDS011;64862;54.398;10.126;2023-08-01T18:42:28;9.93;;;1.80;;
16967;SDS011;64862;54.398;10.126;2023-08-01T18:52:32;8.35;;;1.52;;
16967;SDS011;64862;54.398;10.126;2023-08-01T19:02:34;9.40;;;1.42;;
16967;SDS011;64862;54.398;10.126;2023-08-01T19:12:38;7.07;;;1.50;;
16967;SDS011;64862;54.398;10.126;2023-08-01T19:22:43;8.88;;;1.58;;
